Terminal Aerodrome Forecast
Issued by NWS

Home | Current Version | Previous Version | Text Only | Print | Product List | Glossary On
Versions: 1 2 3 4 5 6 7 8 9 10 11 12 13 14 15 16 17 18 19 20 21 22 23 24 25
000
FTPA31 PHFO 042300
TAFLIH
TAF
PHLI 042333Z 0500/0524 09010KT P6SM FEW025 SCT050
     FM050600 05008KT P6SM SCT025
     FM052000 06011KT P6SM FEW025 SCT050=

USA.gov is the U.S. government's official web portal to all federal, state and local government web resources and services.